Volga-4051 — V4TJ2 — position and weather

sailwx.info

Track history (hours):
 
Tides and Currents Weather Stations Pressure Air Temp Water Temp Dewpoint Dewpoint Depression Visibility Wind Speed Wind Dir Waves Ship Positions

Volga-4051

Last reported at 2017-Sep-11 23:42 UTC. Time now 2017-Sep-21 01:31 UTC.
Position N 41°16' E 029°04'.
Warning: this ship's position is 9 days out of date.

Length 140 m; draft 4.6 m.

Type: Cargo ship. MMSI: 341140000.

Date/timePositionNaut miles runAvg speedWind from/ knotsBaromVisibWave heightAir tempDewpointWater temp
2017-Sep-11 23:42N 41°16' E 029°04'0 0.0
2017-Sep-11 19:06N 41°16' E 029°04'0 0.0
2017-Sep-11 18:54N 41°16' E 029°04'0 0.0
2017-Sep-11 18:30N 41°16' E 029°04'0 0.0
2017-Sep-11 16:54N 41°16' E 029°04'0 0.0
2017-Sep-11 16:24N 41°16' E 029°04'0 0.0
2017-Sep-11 15:57N 41°16' E 029°04'0 0.0
2017-Sep-11 14:41N 41°16' E 029°04'0 0.0
2017-Sep-11 14:26N 41°16' E 029°04'2 0.2
2017-Sep-11 04:44N 41°18' E 029°05'2 7.4
2017-Sep-11 04:30N 41°19' E 029°07'4 7.4
2017-Sep-11 04:00N 41°21' E 029°11'11 7.4
2017-Sep-11 02:33N 41°28' E 029°22'1 7.0
2017-Sep-11 02:28N 41°29' E 029°22'8 6.8
2017-Sep-11 01:21N 41°33' E 029°30'2 6.6
2017-Sep-11 00:59N 41°35' E 029°33'3 6.6
2017-Sep-11 00:30N 41°36' E 029°36'3 6.7
2017-Sep-10 23:59N 41°39' E 029°40'3 6.6
2017-Sep-10 23:29N 41°41' E 029°43'3 6.7
2017-Sep-10 23:00N 41°43' E 029°46'3 6.5
2017-Sep-10 22:31N 41°45' E 029°50'3 6.6
2017-Sep-10 22:00N 41°47' E 029°53'3 6.6
2017-Sep-10 21:30N 41°49' E 029°56'3 6.7
2017-Sep-10 21:00N 41°52' E 029°60'3 5.5
2017-Sep-10 20:30N 41°53' E 030°03'3 5.2
2017-Sep-10 19:59N 41°55' E 030°05'3 5.4
2017-Sep-10 19:29N 41°57' E 030°08'3 5.6
2017-Sep-10 19:00N 41°59' E 030°11'3 5.7
2017-Sep-10 18:29N 42°01' E 030°14'3 5.7
2017-Sep-10 18:00N 42°02' E 030°17'3 5.8
2017-Sep-10 17:31N 42°04' E 030°20'3 6.2
2017-Sep-10 17:00N 42°06' E 030°23'4 7.2
2017-Sep-10 16:30N 42°08' E 030°27'4 7.3
2017-Sep-10 15:59N 42°11' E 030°31'4 7.5
2017-Sep-10 15:30N 42°13' E 030°35'4 7.7
2017-Sep-10 15:00N 42°15' E 030°39'8 7.8
2017-Sep-10 14:00N 42°20' E 030°48'4 7.7
2017-Sep-10 13:30N 42°22' E 030°52'4 7.5
2017-Sep-10 13:00N 42°25' E 030°55'4 7.4
2017-Sep-10 12:29N 42°27' E 030°59'4 7.4
2017-Sep-10 12:00N 42°29' E 031°03'4 7.3
2017-Sep-10 11:30N 42°32' E 031°07'285 7.0
2017-Sep-08 18:43N 45°18' E 036°29'1 6.3
2017-Sep-08 18:29N 45°19' E 036°31'3 6.4
2017-Sep-08 18:00N 45°20' E 036°35'3 5.9
2017-Sep-08 17:31N 45°21' E 036°39'3 6.3
2017-Sep-08 17:00N 45°24' E 036°40'3 6.5
2017-Sep-08 16:29N 45°27' E 036°40'0 0.7
2017-Sep-08 15:55N 45°28' E 036°40'0 0.0
2017-Sep-08 15:28N 45°28' E 036°40'0 0.0
2017-Sep-08 14:58N 45°28' E 036°40'0 0.0
2017-Sep-08 14:28N 45°28' E 036°40'0 0.0
2017-Sep-08 13:58N 45°28' E 036°40'1 1.1
2017-Sep-08 13:30N 45°28' E 036°41'3 6.4
2017-Sep-08 13:01N 45°28' E 036°45'3 6.5
2017-Sep-08 12:29N 45°28' E 036°50'  
Track history (hours):
 
Tides and Currents Weather Stations Pressure Air Temp Water Temp Dewpoint Dewpoint Depression Visibility Wind Speed Wind Dir Waves Ship Positions

Volga-4051

Last reported at 2017-Sep-11 23:42 UTC. Time now 2017-Sep-21 01:31 UTC.
Position N 41°16' E 029°04'.
Warning: this ship's position is 9 days out of date.

Length 140 m; draft 4.6 m.

Type: Cargo ship. MMSI: 341140000.

Date/timePositionNaut miles runAvg speedWind from/ knotsBaromVisibWave heightAir tempDewpointWater temp
2017-Sep-11 23:42N 41°16' E 029°04'0 0.0
2017-Sep-11 19:06N 41°16' E 029°04'0 0.0
2017-Sep-11 18:54N 41°16' E 029°04'0 0.0
2017-Sep-11 18:30N 41°16' E 029°04'0 0.0
2017-Sep-11 16:54N 41°16' E 029°04'0 0.0
2017-Sep-11 16:24N 41°16' E 029°04'0 0.0
2017-Sep-11 15:57N 41°16' E 029°04'0 0.0
2017-Sep-11 14:41N 41°16' E 029°04'0 0.0
2017-Sep-11 14:26N 41°16' E 029°04'2 0.2
2017-Sep-11 04:44N 41°18' E 029°05'2 7.4
2017-Sep-11 04:30N 41°19' E 029°07'4 7.4
2017-Sep-11 04:00N 41°21' E 029°11'11 7.4
2017-Sep-11 02:33N 41°28' E 029°22'1 7.0
2017-Sep-11 02:28N 41°29' E 029°22'8 6.8
2017-Sep-11 01:21N 41°33' E 029°30'2 6.6
2017-Sep-11 00:59N 41°35' E 029°33'3 6.6
2017-Sep-11 00:30N 41°36' E 029°36'3 6.7
2017-Sep-10 23:59N 41°39' E 029°40'3 6.6
2017-Sep-10 23:29N 41°41' E 029°43'3 6.7
2017-Sep-10 23:00N 41°43' E 029°46'3 6.5
2017-Sep-10 22:31N 41°45' E 029°50'3 6.6
2017-Sep-10 22:00N 41°47' E 029°53'3 6.6
2017-Sep-10 21:30N 41°49' E 029°56'3 6.7
2017-Sep-10 21:00N 41°52' E 029°60'3 5.5
2017-Sep-10 20:30N 41°53' E 030°03'3 5.2
2017-Sep-10 19:59N 41°55' E 030°05'3 5.4
2017-Sep-10 19:29N 41°57' E 030°08'3 5.6
2017-Sep-10 19:00N 41°59' E 030°11'3 5.7
2017-Sep-10 18:29N 42°01' E 030°14'3 5.7
2017-Sep-10 18:00N 42°02' E 030°17'3 5.8
2017-Sep-10 17:31N 42°04' E 030°20'3 6.2
2017-Sep-10 17:00N 42°06' E 030°23'4 7.2
2017-Sep-10 16:30N 42°08' E 030°27'4 7.3
2017-Sep-10 15:59N 42°11' E 030°31'4 7.5
2017-Sep-10 15:30N 42°13' E 030°35'4 7.7
2017-Sep-10 15:00N 42°15' E 030°39'8 7.8
2017-Sep-10 14:00N 42°20' E 030°48'4 7.7
2017-Sep-10 13:30N 42°22' E 030°52'4 7.5
2017-Sep-10 13:00N 42°25' E 030°55'4 7.4
2017-Sep-10 12:29N 42°27' E 030°59'4 7.4
2017-Sep-10 12:00N 42°29' E 031°03'4 7.3
2017-Sep-10 11:30N 42°32' E 031°07'285 7.0
2017-Sep-08 18:43N 45°18' E 036°29'1 6.3
2017-Sep-08 18:29N 45°19' E 036°31'3 6.4
2017-Sep-08 18:00N 45°20' E 036°35'3 5.9
2017-Sep-08 17:31N 45°21' E 036°39'3 6.3
2017-Sep-08 17:00N 45°24' E 036°40'3 6.5
2017-Sep-08 16:29N 45°27' E 036°40'0 0.7
2017-Sep-08 15:55N 45°28' E 036°40'0 0.0
2017-Sep-08 15:28N 45°28' E 036°40'0 0.0
2017-Sep-08 14:58N 45°28' E 036°40'0 0.0
2017-Sep-08 14:28N 45°28' E 036°40'0 0.0
2017-Sep-08 13:58N 45°28' E 036°40'1 1.1
2017-Sep-08 13:30N 45°28' E 036°41'3 6.4
2017-Sep-08 13:01N 45°28' E 036°45'3 6.5
2017-Sep-08 12:29N 45°28' E 036°50'  

Dump ship's entire track history